首页
METAR-TAF:

METAR-TAF

机场 :

Virginia Highlands Airport

阿宾登, 弗吉尼亚州, 美国

纬度: 36-41N, 经度: 082-02W, 海拔: 631米

当前天气观测

该预报发布于15分钟前的00:15 UTC
静风
温度 20°C
湿度 94%
气压 1021 hPa
能見度: 16.1公里
散云层高于2900英尺
散云层高于5000英尺
阴天层高于9500英尺
小毛毛雨

METAR: KVJI 240015Z AUTO 00000KT 10SM -DZ SCT029 SCT050 OVC095 20/19 A3015 RMK AO2 T02030193

时间: 20:30 (00:30 UTC)


TAF: 丢失

超过4000个机场的气象观测和天气预报(METAR&TAF报告)。

可查询的气象台以黄色和红色小点在地图上表示。

将鼠标移到小点上方,可查看气象台名称。

然后点击查看天气观测和预报。

如需切换地图:点击带黑十字的绿色按钮放大地图;点击带横线的绿色按钮缩小地图;或者点击绿色箭头查看邻近地区的地图。


METAR-TAF: